sensor_id;sensor_type;location;lat;lon;timestamp;temperature;humidity
58519;DHT22;44310;48.106;12.008;2023-02-21T00:01:44;16.50;88.50
58519;DHT22;44310;48.106;12.008;2023-02-21T00:04:29;16.20;88.50
58519;DHT22;44310;48.106;12.008;2023-02-21T00:07:15;16.40;88.20
58519;DHT22;44310;48.106;12.008;2023-02-21T00:10:02;16.20;88.80
58519;DHT22;44310;48.106;12.008;2023-02-21T00:12:48;16.90;88.70
58519;DHT22;44310;48.106;12.008;2023-02-21T00:15:33;16.10;88.40
58519;DHT22;44310;48.106;12.008;2023-02-21T00:18:20;16.20;88.50
58519;DHT22;44310;48.106;12.008;2023-02-21T00:21:05;16.90;88.80
58519;DHT22;44310;48.106;12.008;2023-02-21T00:23:51;16.30;88.50
58519;DHT22;44310;48.106;12.008;2023-02-21T00:26:37;16.10;88.10
58519;DHT22;44310;48.106;12.008;2023-02-21T00:29:22;16.10;88.10
58519;DHT22;44310;48.106;12.008;2023-02-21T00:32:08;16.00;87.90
58519;DHT22;44310;48.106;12.008;2023-02-21T00:34:54;15.30;87.60
58519;DHT22;44310;48.106;12.008;2023-02-21T00:37:40;16.30;88.10
58519;DHT22;44310;48.106;12.008;2023-02-21T00:40:25;16.00;88.30
58519;DHT22;44310;48.106;12.008;2023-02-21T00:43:11;16.00;88.30
58519;DHT22;44310;48.106;12.008;2023-02-21T00:45:57;16.10;88.20
58519;DHT22;44310;48.106;12.008;2023-02-21T00:48:43;16.10;88.10
58519;DHT22;44310;48.106;12.008;2023-02-21T00:51:28;16.10;88.10
58519;DHT22;44310;48.106;12.008;2023-02-21T00:54:14;16.10;88.10
58519;DHT22;44310;48.106;12.008;2023-02-21T00:57:00;16.10;87.80
58519;DHT22;44310;48.106;12.008;2023-02-21T00:59:46;16.00;87.00
58519;DHT22;44310;48.106;12.008;2023-02-21T01:02:31;16.00;86.60
58519;DHT22;44310;48.106;12.008;2023-02-21T01:05:17;16.00;86.80
58519;DHT22;44310;48.106;12.008;2023-02-21T01:08:03;16.20;86.40
58519;DHT22;44310;48.106;12.008;2023-02-21T01:10:49;16.00;86.20
58519;DHT22;44310;48.106;12.008;2023-02-21T01:13:34;15.90;86.10
58519;DHT22;44310;48.106;12.008;2023-02-21T01:16:20;15.90;85.90
58519;DHT22;44310;48.106;12.008;2023-02-21T01:19:06;15.80;85.90
58519;DHT22;44310;48.106;12.008;2023-02-21T01:21:51;15.90;85.80
58519;DHT22;44310;48.106;12.008;2023-02-21T01:24:37;15.90;85.90
58519;DHT22;44310;48.106;12.008;2023-02-21T01:27:23;15.90;86.60
58519;DHT22;44310;48.106;12.008;2023-02-21T01:30:09;16.00;87.70
58519;DHT22;44310;48.106;12.008;2023-02-21T01:32:55;16.10;88.10
58519;DHT22;44310;48.106;12.008;2023-02-21T01:35:40;16.30;88.40
58519;DHT22;44310;48.106;12.008;2023-02-21T01:38:26;16.10;88.30
58519;DHT22;44310;48.106;12.008;2023-02-21T01:41:12;16.10;88.40
58519;DHT22;44310;48.106;12.008;2023-02-21T01:44:03;15.90;88.30
58519;DHT22;44310;48.106;12.008;2023-02-21T01:46:48;16.20;88.60
58519;DHT22;44310;48.106;12.008;2023-02-21T01:49:37;16.20;88.70
58519;DHT22;44310;48.106;12.008;2023-02-21T01:52:24;16.10;88.60
58519;DHT22;44310;48.106;12.008;2023-02-21T01:55:10;16.20;89.00
58519;DHT22;44310;48.106;12.008;2023-02-21T01:57:57;16.40;88.80
58519;DHT22;44310;48.106;12.008;2023-02-21T02:00:43;16.20;89.10
58519;DHT22;44310;48.106;12.008;2023-02-21T02:03:29;16.10;89.10
58519;DHT22;44310;48.106;12.008;2023-02-21T02:06:16;16.20;89.70
58519;DHT22;44310;48.106;12.008;2023-02-21T02:09:18;16.20;89.10
58519;DHT22;44310;48.106;12.008;2023-02-21T02:12:32;16.10;88.80
58519;DHT22;44310;48.106;12.008;2023-02-21T02:15:05;16.10;88.80
58519;DHT22;44310;48.106;12.008;2023-02-21T02:18:00;16.10;88.40
58519;DHT22;44310;48.106;12.008;2023-02-21T02:20:45;16.10;88.40
58519;DHT22;44310;48.106;12.008;2023-02-21T02:23:38;16.00;88.00
58519;DHT22;44310;48.106;12.008;2023-02-21T02:26:40;16.10;88.00
58519;DHT22;44310;48.106;12.008;2023-02-21T02:31:58;16.00;87.60
58519;DHT22;44310;48.106;12.008;2023-02-21T02:34:54;16.30;87.40
58519;DHT22;44310;48.106;12.008;2023-02-21T02:45:52;16.00;86.70
58519;DHT22;44310;48.106;12.008;2023-02-21T02:48:21;16.00;86.50
58519;DHT22;44310;48.106;12.008;2023-02-21T02:50:50;16.00;86.40
58519;DHT22;44310;48.106;12.008;2023-02-21T02:53:25;16.10;86.50
58519;DHT22;44310;48.106;12.008;2023-02-21T02:55:57;16.00;86.50
58519;DHT22;44310;48.106;12.008;2023-02-21T02:58:27;16.00;87.30
58519;DHT22;44310;48.106;12.008;2023-02-21T03:07:25;15.90;86.30
58519;DHT22;44310;48.106;12.008;2023-02-21T03:13:05;15.90;86.10
58519;DHT22;44310;48.106;12.008;2023-02-21T03:15:57;15.90;86.10
58519;DHT22;44310;48.106;12.008;2023-02-21T03:18:30;15.90;85.90
58519;DHT22;44310;48.106;12.008;2023-02-21T03:20:59;15.90;85.70
58519;DHT22;44310;48.106;12.008;2023-02-21T03:23:29;15.90;85.80
58519;DHT22;44310;48.106;12.008;2023-02-21T03:26:02;15.90;86.60
58519;DHT22;44310;48.106;12.008;2023-02-21T03:28:31;15.90;87.30
58519;DHT22;44310;48.106;12.008;2023-02-21T03:31:01;16.30;87.80
58519;DHT22;44310;48.106;12.008;2023-02-21T03:33:30;16.10;88.10
58519;DHT22;44310;48.106;12.008;2023-02-21T03:35:59;16.10;88.10
58519;DHT22;44310;48.106;12.008;2023-02-21T03:38:30;16.10;88.30
58519;DHT22;44310;48.106;12.008;2023-02-21T03:41:07;16.50;88.60
58519;DHT22;44310;48.106;12.008;2023-02-21T03:43:34;16.00;87.50
58519;DHT22;44310;48.106;12.008;2023-02-21T03:46:01;16.00;87.10
58519;DHT22;44310;48.106;12.008;2023-02-21T03:48:28;15.90;86.90
58519;DHT22;44310;48.106;12.008;2023-02-21T03:50:59;15.90;86.80
58519;DHT22;44310;48.106;12.008;2023-02-21T03:53:26;16.00;86.70
58519;DHT22;44310;48.106;12.008;2023-02-21T03:55:53;15.90;86.30
58519;DHT22;44310;48.106;12.008;2023-02-21T03:58:20;15.90;86.10
58519;DHT22;44310;48.106;12.008;2023-02-21T04:00:47;15.90;86.20
58519;DHT22;44310;48.106;12.008;2023-02-21T04:03:15;15.90;86.10
58519;DHT22;44310;48.106;12.008;2023-02-21T04:05:42;15.90;85.90
58519;DHT22;44310;48.106;12.008;2023-02-21T04:08:10;15.90;85.70
58519;DHT22;44310;48.106;12.008;2023-02-21T04:10:37;15.90;85.60
58519;DHT22;44310;48.106;12.008;2023-02-21T04:13:18;15.90;85.30
58519;DHT22;44310;48.106;12.008;2023-02-21T04:15:45;15.90;85.40
58519;DHT22;44310;48.106;12.008;2023-02-21T04:18:13;16.00;86.40
58519;DHT22;44310;48.106;12.008;2023-02-21T04:20:40;16.00;86.70
58519;DHT22;44310;48.106;12.008;2023-02-21T04:23:07;16.00;86.70
58519;DHT22;44310;48.106;12.008;2023-02-21T04:25:35;16.00;86.50
58519;DHT22;44310;48.106;12.008;2023-02-21T04:28:02;16.30;86.70
58519;DHT22;44310;48.106;12.008;2023-02-21T04:30:29;16.00;86.50
58519;DHT22;44310;48.106;12.008;2023-02-21T04:32:57;16.00;86.30
58519;DHT22;44310;48.106;12.008;2023-02-21T04:35:24;16.30;86.20
58519;DHT22;44310;48.106;12.008;2023-02-21T04:37:51;16.00;86.20
58519;DHT22;44310;48.106;12.008;2023-02-21T04:40:18;16.00;86.30
58519;DHT22;44310;48.106;12.008;2023-02-21T04:42:45;15.90;86.20
58519;DHT22;44310;48.106;12.008;2023-02-21T04:45:12;15.90;85.80
58519;DHT22;44310;48.106;12.008;2023-02-21T04:47:39;15.90;85.80
58519;DHT22;44310;48.106;12.008;2023-02-21T04:50:07;16.00;85.90
58519;DHT22;44310;48.106;12.008;2023-02-21T04:52:34;15.90;85.50
58519;DHT22;44310;48.106;12.008;2023-02-21T04:55:01;15.90;85.20
58519;DHT22;44310;48.106;12.008;2023-02-21T04:57:28;16.60;85.70
58519;DHT22;44310;48.106;12.008;2023-02-21T04:59:59;15.80;85.30
58519;DHT22;44310;48.106;12.008;2023-02-21T05:02:27;15.80;85.20
58519;DHT22;44310;48.106;12.008;2023-02-21T05:04:54;15.80;85.10
58519;DHT22;44310;48.106;12.008;2023-02-21T05:07:21;15.80;85.00
58519;DHT22;44310;48.106;12.008;2023-02-21T05:09:48;15.80;85.10
58519;DHT22;44310;48.106;12.008;2023-02-21T05:12:15;15.80;85.20
58519;DHT22;44310;48.106;12.008;2023-02-21T05:14:42;15.90;86.30
58519;DHT22;44310;48.106;12.008;2023-02-21T05:17:10;15.90;86.90
58519;DHT22;44310;48.106;12.008;2023-02-21T05:19:37;16.00;87.20
58519;DHT22;44310;48.106;12.008;2023-02-21T05:22:04;16.00;87.40
58519;DHT22;44310;48.106;12.008;2023-02-21T05:24:33;16.00;87.60
58519;DHT22;44310;48.106;12.008;2023-02-21T05:27:01;16.30;87.60
58519;DHT22;44310;48.106;12.008;2023-02-21T05:29:28;16.00;87.50
58519;DHT22;44310;48.106;12.008;2023-02-21T05:31:55;16.00;87.70
58519;DHT22;44310;48.106;12.008;2023-02-21T05:34:22;16.10;87.60
58519;DHT22;44310;48.106;12.008;2023-02-21T05:36:49;16.10;87.50
58519;DHT22;44310;48.106;12.008;2023-02-21T05:39:17;16.00;87.50
58519;DHT22;44310;48.106;12.008;2023-02-21T05:41:48;16.00;87.80
58519;DHT22;44310;48.106;12.008;2023-02-21T05:44:16;16.10;88.00
58519;DHT22;44310;48.106;12.008;2023-02-21T05:46:43;16.10;88.10
58519;DHT22;44310;48.106;12.008;2023-02-21T05:49:12;16.00;88.10
58519;DHT22;44310;48.106;12.008;2023-02-21T05:51:41;16.00;88.00
58519;DHT22;44310;48.106;12.008;2023-02-21T05:54:16;16.10;87.90
58519;DHT22;44310;48.106;12.008;2023-02-21T05:56:44;16.00;87.70
58519;DHT22;44310;48.106;12.008;2023-02-21T05:59:13;16.00;87.50
58519;DHT22;44310;48.106;12.008;2023-02-21T06:01:40;16.00;87.30
58519;DHT22;44310;48.106;12.008;2023-02-21T06:04:07;16.00;87.10
58519;DHT22;44310;48.106;12.008;2023-02-21T06:06:34;16.20;87.00
58519;DHT22;44310;48.106;12.008;2023-02-21T06:09:03;16.00;86.90
58519;DHT22;44310;48.106;12.008;2023-02-21T06:11:33;16.00;86.60
58519;DHT22;44310;48.106;12.008;2023-02-21T06:14:04;15.50;86.50
58519;DHT22;44310;48.106;12.008;2023-02-21T06:16:36;16.00;86.70
58519;DHT22;44310;48.106;12.008;2023-02-21T06:19:06;16.50;86.90
58519;DHT22;44310;48.106;12.008;2023-02-21T06:21:33;16.30;86.80
58519;DHT22;44310;48.106;12.008;2023-02-21T06:24:01;16.00;86.50
58519;DHT22;44310;48.106;12.008;2023-02-21T06:26:28;15.80;86.30
58519;DHT22;44310;48.106;12.008;2023-02-21T06:28:56;16.00;86.40
58519;DHT22;44310;48.106;12.008;2023-02-21T06:31:23;16.00;86.40
58519;DHT22;44310;48.106;12.008;2023-02-21T06:33:51;16.00;86.30
58519;DHT22;44310;48.106;12.008;2023-02-21T06:36:20;15.50;85.90
58519;DHT22;44310;48.106;12.008;2023-02-21T06:38:50;16.00;86.00
58519;DHT22;44310;48.106;12.008;2023-02-21T06:41:20;16.00;86.80
58519;DHT22;44310;48.106;12.008;2023-02-21T06:43:53;16.00;86.00
58519;DHT22;44310;48.106;12.008;2023-02-21T06:46:23;16.30;86.00
58519;DHT22;44310;48.106;12.008;2023-02-21T06:48:51;16.00;85.90
58519;DHT22;44310;48.106;12.008;2023-02-21T06:51:18;16.00;86.00
58519;DHT22;44310;48.106;12.008;2023-02-21T06:53:49;16.10;86.00
58519;DHT22;44310;48.106;12.008;2023-02-21T06:56:16;16.10;86.10
58519;DHT22;44310;48.106;12.008;2023-02-21T06:58:43;17.30;86.70
58519;DHT22;44310;48.106;12.008;2023-02-21T07:01:10;16.10;86.00
58519;DHT22;44310;48.106;12.008;2023-02-21T07:03:41;16.10;85.70
58519;DHT22;44310;48.106;12.008;2023-02-21T07:06:10;16.10;85.50
58519;DHT22;44310;48.106;12.008;2023-02-21T07:08:37;15.90;85.20
58519;DHT22;44310;48.106;12.008;2023-02-21T07:11:04;16.00;85.00
58519;DHT22;44310;48.106;12.008;2023-02-21T07:13:32;16.00;84.70
58519;DHT22;44310;48.106;12.008;2023-02-21T07:16:00;16.00;84.40
58519;DHT22;44310;48.106;12.008;2023-02-21T07:18:27;16.00;84.10
58519;DHT22;44310;48.106;12.008;2023-02-21T07:20:55;16.00;83.90
58519;DHT22;44310;48.106;12.008;2023-02-21T07:23:22;16.00;83.80
58519;DHT22;44310;48.106;12.008;2023-02-21T07:25:49;16.00;83.70
58519;DHT22;44310;48.106;12.008;2023-02-21T07:28:16;16.00;83.70
58519;DHT22;44310;48.106;12.008;2023-02-21T07:30:44;16.00;83.50
58519;DHT22;44310;48.106;12.008;2023-02-21T07:33:11;16.00;83.20
58519;DHT22;44310;48.106;12.008;2023-02-21T07:35:38;16.00;83.20
58519;DHT22;44310;48.106;12.008;2023-02-21T07:38:05;16.00;82.90
58519;DHT22;44310;48.106;12.008;2023-02-21T07:40:32;16.00;82.90
58519;DHT22;44310;48.106;12.008;2023-02-21T07:42:59;16.00;82.90
58519;DHT22;44310;48.106;12.008;2023-02-21T07:45:28;16.00;82.80
58519;DHT22;44310;48.106;12.008;2023-02-21T07:47:55;16.00;83.40
58519;DHT22;44310;48.106;12.008;2023-02-21T07:50:22;16.00;82.80
58519;DHT22;44310;48.106;12.008;2023-02-21T07:52:49;16.00;82.80
58519;DHT22;44310;48.106;12.008;2023-02-21T07:55:17;16.00;83.00
58519;DHT22;44310;48.106;12.008;2023-02-21T07:57:44;14.70;82.20
58519;DHT22;44310;48.106;12.008;2023-02-21T08:00:12;16.00;83.00
58519;DHT22;44310;48.106;12.008;2023-02-21T08:02:40;16.10;83.10
58519;DHT22;44310;48.106;12.008;2023-02-21T08:05:08;16.10;83.10
58519;DHT22;44310;48.106;12.008;2023-02-21T08:07:35;16.00;83.10
58519;DHT22;44310;48.106;12.008;2023-02-21T08:10:03;16.00;83.00
58519;DHT22;44310;48.106;12.008;2023-02-21T08:12:30;16.00;82.90
58519;DHT22;44310;48.106;12.008;2023-02-21T08:14:58;16.00;82.80
58519;DHT22;44310;48.106;12.008;2023-02-21T08:17:25;16.00;82.30
58519;DHT22;44310;48.106;12.008;2023-02-21T08:19:52;16.10;82.60
58519;DHT22;44310;48.106;12.008;2023-02-21T08:22:19;16.00;82.40
58519;DHT22;44310;48.106;12.008;2023-02-21T08:24:50;15.80;82.20
58519;DHT22;44310;48.106;12.008;2023-02-21T08:27:17;16.00;82.00
58519;DHT22;44310;48.106;12.008;2023-02-21T08:29:44;16.00;81.80
58519;DHT22;44310;48.106;12.008;2023-02-21T08:32:15;16.10;81.90
58519;DHT22;44310;48.106;12.008;2023-02-21T08:34:49;16.00;82.10
58519;DHT22;44310;48.106;12.008;2023-02-21T08:37:16;16.10;82.50
58519;DHT22;44310;48.106;12.008;2023-02-21T08:39:46;16.10;82.70
58519;DHT22;44310;48.106;12.008;2023-02-21T08:42:14;16.10;82.90
58519;DHT22;44310;48.106;12.008;2023-02-21T08:44:42;16.10;83.00
58519;DHT22;44310;48.106;12.008;2023-02-21T08:47:11;16.10;83.20
58519;DHT22;44310;48.106;12.008;2023-02-21T08:49:38;16.10;83.40
58519;DHT22;44310;48.106;12.008;2023-02-21T08:52:07;15.90;83.50
58519;DHT22;44310;48.106;12.008;2023-02-21T08:54:35;16.20;83.90
58519;DHT22;44310;48.106;12.008;2023-02-21T08:57:03;16.20;84.40
58519;DHT22;44310;48.106;12.008;2023-02-21T08:59:30;16.20;84.60
58519;DHT22;44310;48.106;12.008;2023-02-21T09:02:00;16.20;85.40
58519;DHT22;44310;48.106;12.008;2023-02-21T09:04:27;15.90;84.80
58519;DHT22;44310;48.106;12.008;2023-02-21T09:06:55;16.20;84.90
58519;DHT22;44310;48.106;12.008;2023-02-21T09:09:22;16.20;85.10
58519;DHT22;44310;48.106;12.008;2023-02-21T09:11:49;16.20;85.10
58519;DHT22;44310;48.106;12.008;2023-02-21T09:14:16;16.20;85.70
58519;DHT22;44310;48.106;12.008;2023-02-21T09:16:43;16.20;85.20
58519;DHT22;44310;48.106;12.008;2023-02-21T09:19:14;16.20;85.20
58519;DHT22;44310;48.106;12.008;2023-02-21T09:21:45;16.10;85.00
58519;DHT22;44310;48.106;12.008;2023-02-21T09:24:13;15.90;84.80
58519;DHT22;44310;48.106;12.008;2023-02-21T09:26:40;16.10;84.90
58519;DHT22;44310;48.106;12.008;2023-02-21T09:29:08;16.10;85.00
58519;DHT22;44310;48.106;12.008;2023-02-21T09:31:38;16.10;85.60
58519;DHT22;44310;48.106;12.008;2023-02-21T09:34:05;16.20;85.80
58519;DHT22;44310;48.106;12.008;2023-02-21T09:36:34;16.20;85.60
58519;DHT22;44310;48.106;12.008;2023-02-21T09:39:02;16.20;85.70
58519;DHT22;44310;48.106;12.008;2023-02-21T09:41:33;16.20;85.70
58519;DHT22;44310;48.106;12.008;2023-02-21T09:44:03;16.20;85.70
58519;DHT22;44310;48.106;12.008;2023-02-21T09:46:45;16.40;85.80
58519;DHT22;44310;48.106;12.008;2023-02-21T09:49:22;16.20;85.70
58519;DHT22;44310;48.106;12.008;2023-02-21T09:51:50;16.20;85.80
58519;DHT22;44310;48.106;12.008;2023-02-21T09:54:27;16.20;85.90
58519;DHT22;44310;48.106;12.008;2023-02-21T09:56:59;16.20;86.00
58519;DHT22;44310;48.106;12.008;2023-02-21T09:59:27;16.30;86.20
58519;DHT22;44310;48.106;12.008;2023-02-21T10:07:36;16.30;85.80
58519;DHT22;44310;48.106;12.008;2023-02-21T10:13:06;16.30;85.90
58519;DHT22;44310;48.106;12.008;2023-02-21T10:15:44;16.30;85.80
58519;DHT22;44310;48.106;12.008;2023-02-21T10:20:54;16.30;85.90
58519;DHT22;44310;48.106;12.008;2023-02-21T10:25:54;15.50;85.30
58519;DHT22;44310;48.106;12.008;2023-02-21T10:28:25;16.20;85.80
58519;DHT22;44310;48.106;12.008;2023-02-21T10:30:59;16.30;86.10
58519;DHT22;44310;48.106;12.008;2023-02-21T10:33:37;16.30;86.30
58519;DHT22;44310;48.106;12.008;2023-02-21T10:36:18;16.30;86.20
58519;DHT22;44310;48.106;12.008;2023-02-21T10:38:57;16.30;86.40
58519;DHT22;44310;48.106;12.008;2023-02-21T10:41:28;16.30;86.50
58519;DHT22;44310;48.106;12.008;2023-02-21T10:44:22;16.30;86.40
58519;DHT22;44310;48.106;12.008;2023-02-21T10:47:01;16.30;86.40
58519;DHT22;44310;48.106;12.008;2023-02-21T10:49:45;16.30;86.80
58519;DHT22;44310;48.106;12.008;2023-02-21T10:52:16;16.30;86.90
58519;DHT22;44310;48.106;12.008;2023-02-21T10:55:04;16.30;87.00
58519;DHT22;44310;48.106;12.008;2023-02-21T10:57:41;16.30;87.00
58519;DHT22;44310;48.106;12.008;2023-02-21T11:00:20;16.30;86.80
58519;DHT22;44310;48.106;12.008;2023-02-21T11:02:54;16.30;86.90
58519;DHT22;44310;48.106;12.008;2023-02-21T11:05:23;16.30;86.80
58519;DHT22;44310;48.106;12.008;2023-02-21T11:08:03;16.30;86.80
58519;DHT22;44310;48.106;12.008;2023-02-21T11:10:38;16.30;86.80
58519;DHT22;44310;48.106;12.008;2023-02-21T11:13:16;16.30;86.70
58519;DHT22;44310;48.106;12.008;2023-02-21T11:15:44;16.30;86.50
58519;DHT22;44310;48.106;12.008;2023-02-21T11:18:17;16.60;86.90
58519;DHT22;44310;48.106;12.008;2023-02-21T11:20:48;16.30;86.70
58519;DHT22;44310;48.106;12.008;2023-02-21T11:23:26;16.40;86.70
58519;DHT22;44310;48.106;12.008;2023-02-21T11:26:10;16.40;86.60
58519;DHT22;44310;48.106;12.008;2023-02-21T11:28:42;16.40;86.60
58519;DHT22;44310;48.106;12.008;2023-02-21T11:31:27;16.40;86.50
58519;DHT22;44310;48.106;12.008;2023-02-21T11:34:06;16.40;86.90
58519;DHT22;44310;48.106;12.008;2023-02-21T11:36:42;16.30;86.20
58519;DHT22;44310;48.106;12.008;2023-02-21T11:41:48;16.30;86.10
58519;DHT22;44310;48.106;12.008;2023-02-21T11:44:27;16.40;85.90
58519;DHT22;44310;48.106;12.008;2023-02-21T11:55:19;16.30;87.00
58519;DHT22;44310;48.106;12.008;2023-02-21T12:01:06;16.40;86.70
58519;DHT22;44310;48.106;12.008;2023-02-21T12:09:36;16.40;87.90
58519;DHT22;44310;48.106;12.008;2023-02-21T12:12:27;16.40;87.90
58519;DHT22;44310;48.106;12.008;2023-02-21T12:17:50;16.40;88.60
58519;DHT22;44310;48.106;12.008;2023-02-21T12:20:32;16.40;88.20
58519;DHT22;44310;48.106;12.008;2023-02-21T12:31:21;16.40;87.90
58519;DHT22;44310;48.106;12.008;2023-02-21T12:48:40;16.50;88.60
58519;DHT22;44310;48.106;12.008;2023-02-21T12:50:51;16.50;88.70
58519;DHT22;44310;48.106;12.008;2023-02-21T12:53:29;16.50;88.30
58519;DHT22;44310;48.106;12.008;2023-02-21T12:56:03;16.40;80.90
58519;DHT22;44310;48.106;12.008;2023-02-21T12:58:39;16.20;71.30
58519;DHT22;44310;48.106;12.008;2023-02-21T13:01:13;16.30;75.10
58519;DHT22;44310;48.106;12.008;2023-02-21T13:04:05;16.20;60.80
58519;DHT22;44310;48.106;12.008;2023-02-21T13:09:20;16.40;72.40
58519;DHT22;44310;48.106;12.008;2023-02-21T13:12:03;16.50;73.10
58519;DHT22;44310;48.106;12.008;2023-02-21T13:14:53;16.70;75.00
58519;DHT22;44310;48.106;12.008;2023-02-21T13:17:25;16.70;75.60
58519;DHT22;44310;48.106;12.008;2023-02-21T13:19:58;16.90;77.20
58519;DHT22;44310;48.106;12.008;2023-02-21T13:28:31;16.40;65.40
58519;DHT22;44310;48.106;12.008;2023-02-21T13:31:04;16.90;68.80
58519;DHT22;44310;48.106;12.008;2023-02-21T13:33:41;16.70;71.70
58519;DHT22;44310;48.106;12.008;2023-02-21T13:36:46;16.70;72.80
58519;DHT22;44310;48.106;12.008;2023-02-21T13:39:19;16.70;74.70
58519;DHT22;44310;48.106;12.008;2023-02-21T13:44:27;16.70;76.50
58519;DHT22;44310;48.106;12.008;2023-02-21T13:47:05;16.80;76.80
58519;DHT22;44310;48.106;12.008;2023-02-21T13:52:22;16.70;77.50
58519;DHT22;44310;48.106;12.008;2023-02-21T14:08:43;16.60;76.20
58519;DHT22;44310;48.106;12.008;2023-02-21T14:11:20;16.50;75.30
58519;DHT22;44310;48.106;12.008;2023-02-21T14:13:58;16.40;71.60
58519;DHT22;44310;48.106;12.008;2023-02-21T14:16:32;16.30;71.10
58519;DHT22;44310;48.106;12.008;2023-02-21T14:19:06;16.30;72.50
58519;DHT22;44310;48.106;12.008;2023-02-21T14:21:41;16.20;70.10
58519;DHT22;44310;48.106;12.008;2023-02-21T14:34:39;16.10;70.50
58519;DHT22;44310;48.106;12.008;2023-02-21T14:51:26;16.30;76.70
58519;DHT22;44310;48.106;12.008;2023-02-21T14:54:20;16.30;77.80
58519;DHT22;44310;48.106;12.008;2023-02-21T15:07:52;16.10;80.20
58519;DHT22;44310;48.106;12.008;2023-02-21T15:10:27;16.20;80.20
58519;DHT22;44310;48.106;12.008;2023-02-21T15:13:00;16.20;80.50
58519;DHT22;44310;48.106;12.008;2023-02-21T15:15:38;16.10;81.10
58519;DHT22;44310;48.106;12.008;2023-02-21T15:20:41;16.10;81.20
58519;DHT22;44310;48.106;12.008;2023-02-21T15:25:36;15.80;81.90
58519;DHT22;44310;48.106;12.008;2023-02-21T15:28:06;15.60;82.40
58519;DHT22;44310;48.106;12.008;2023-02-21T15:30:39;16.00;82.90
58519;DHT22;44310;48.106;12.008;2023-02-21T15:33:14;16.30;83.00
58519;DHT22;44310;48.106;12.008;2023-02-21T15:35:54;16.00;83.60
58519;DHT22;44310;48.106;12.008;2023-02-21T15:41:31;16.00;83.90
58519;DHT22;44310;48.106;12.008;2023-02-21T15:49:19;16.00;84.40
58519;DHT22;44310;48.106;12.008;2023-02-21T15:51:47;16.00;84.60
58519;DHT22;44310;48.106;12.008;2023-02-21T15:56:44;15.90;84.80
58519;DHT22;44310;48.106;12.008;2023-02-21T15:59:24;15.90;84.70
58519;DHT22;44310;48.106;12.008;2023-02-21T16:04:46;15.90;84.90
58519;DHT22;44310;48.106;12.008;2023-02-21T16:07:30;15.90;84.90
58519;DHT22;44310;48.106;12.008;2023-02-21T16:10:02;15.90;84.70
58519;DHT22;44310;48.106;12.008;2023-02-21T16:12:35;15.90;84.70
58519;DHT22;44310;48.106;12.008;2023-02-21T16:17:37;15.90;84.70
58519;DHT22;44310;48.106;12.008;2023-02-21T16:22:47;15.90;84.70
58519;DHT22;44310;48.106;12.008;2023-02-21T16:25:34;15.90;84.60
58519;DHT22;44310;48.106;12.008;2023-02-21T16:28:01;15.90;84.60
58519;DHT22;44310;48.106;12.008;2023-02-21T16:30:37;15.90;84.50
58519;DHT22;44310;48.106;12.008;2023-02-21T16:33:05;15.80;84.30
58519;DHT22;44310;48.106;12.008;2023-02-21T16:35:32;15.80;84.30
58519;DHT22;44310;48.106;12.008;2023-02-21T16:38:00;15.80;84.30
58519;DHT22;44310;48.106;12.008;2023-02-21T16:40:30;15.80;84.50
58519;DHT22;44310;48.106;12.008;2023-02-21T16:43:00;15.80;84.50
58519;DHT22;44310;48.106;12.008;2023-02-21T16:45:29;16.00;84.60
58519;DHT22;44310;48.106;12.008;2023-02-21T16:48:02;15.80;84.70
58519;DHT22;44310;48.106;12.008;2023-02-21T16:50:33;15.80;84.80
58519;DHT22;44310;48.106;12.008;2023-02-21T16:53:00;15.80;85.00
58519;DHT22;44310;48.106;12.008;2023-02-21T16:55:28;15.80;84.70
58519;DHT22;44310;48.106;12.008;2023-02-21T16:58:01;16.20;84.90
58519;DHT22;44310;48.106;12.008;2023-02-21T17:00:29;15.80;83.00
58519;DHT22;44310;48.106;12.008;2023-02-21T17:02:57;15.80;83.80
58519;DHT22;44310;48.106;12.008;2023-02-21T17:05:24;15.70;82.40
58519;DHT22;44310;48.106;12.008;2023-02-21T17:07:52;15.60;82.90
58519;DHT22;44310;48.106;12.008;2023-02-21T17:10:21;15.60;82.80
58519;DHT22;44310;48.106;12.008;2023-02-21T17:12:48;15.90;83.10
58519;DHT22;44310;48.106;12.008;2023-02-21T17:15:16;15.90;83.40
58519;DHT22;44310;48.106;12.008;2023-02-21T17:17:43;16.00;83.60
58519;DHT22;44310;48.106;12.008;2023-02-21T17:20:20;16.00;83.80
58519;DHT22;44310;48.106;12.008;2023-02-21T17:22:49;16.10;84.00
58519;DHT22;44310;48.106;12.008;2023-02-21T17:25:18;15.50;84.10
58519;DHT22;44310;48.106;12.008;2023-02-21T17:27:45;16.20;84.70
58519;DHT22;44310;48.106;12.008;2023-02-21T17:30:13;16.20;84.80
58519;DHT22;44310;48.106;12.008;2023-02-21T17:32:41;16.20;85.10
58519;DHT22;44310;48.106;12.008;2023-02-21T17:35:09;16.30;85.40
58519;DHT22;44310;48.106;12.008;2023-02-21T17:37:36;16.20;85.40
58519;DHT22;44310;48.106;12.008;2023-02-21T17:40:04;16.80;86.00
58519;DHT22;44310;48.106;12.008;2023-02-21T17:42:31;16.20;85.80
58519;DHT22;44310;48.106;12.008;2023-02-21T17:44:58;16.30;86.20
58519;DHT22;44310;48.106;12.008;2023-02-21T17:47:28;16.30;86.80
58519;DHT22;44310;48.106;12.008;2023-02-21T17:49:55;16.30;86.30
58519;DHT22;44310;48.106;12.008;2023-02-21T17:52:25;16.30;86.30
58519;DHT22;44310;48.106;12.008;2023-02-21T17:54:53;16.20;86.60
58519;DHT22;44310;48.106;12.008;2023-02-21T17:57:21;16.70;86.80
58519;DHT22;44310;48.106;12.008;2023-02-21T17:59:48;16.40;86.70
58519;DHT22;44310;48.106;12.008;2023-02-21T18:02:15;15.90;86.60
58519;DHT22;44310;48.106;12.008;2023-02-21T18:04:44;16.30;87.10
58519;DHT22;44310;48.106;12.008;2023-02-21T18:07:14;16.30;87.30
58519;DHT22;44310;48.106;12.008;2023-02-21T18:09:45;16.30;87.40
58519;DHT22;44310;48.106;12.008;2023-02-21T18:12:12;16.40;87.50
58519;DHT22;44310;48.106;12.008;2023-02-21T18:14:39;15.90;87.30
58519;DHT22;44310;48.106;12.008;2023-02-21T18:17:06;16.30;87.40
58519;DHT22;44310;48.106;12.008;2023-02-21T18:19:34;16.30;87.40
58519;DHT22;44310;48.106;12.008;2023-02-21T18:22:01;16.00;87.20
58519;DHT22;44310;48.106;12.008;2023-02-21T18:24:31;16.40;87.40
58519;DHT22;44310;48.106;12.008;2023-02-21T18:26:58;16.40;87.40
58519;DHT22;44310;48.106;12.008;2023-02-21T18:29:25;16.30;87.20
58519;DHT22;44310;48.106;12.008;2023-02-21T18:31:52;16.30;87.20
58519;DHT22;44310;48.106;12.008;2023-02-21T18:34:20;16.20;87.10
58519;DHT22;44310;48.106;12.008;2023-02-21T18:36:52;17.40;87.70
58519;DHT22;44310;48.106;12.008;2023-02-21T18:39:21;16.30;87.00